sensor_id;sensor_type;location;lat;lon;timestamp;temperature;humidity
66582;SHT31;53438;48.898;2.308;2022-10-16T03:00:20;16.81;74.28
66582;SHT31;53438;48.898;2.308;2022-10-16T03:02:46;16.80;74.46
66582;SHT31;53438;48.898;2.308;2022-10-16T03:05:13;16.70;74.45
66582;SHT31;53438;48.898;2.308;2022-10-16T03:07:39;16.79;74.21
66582;SHT31;53438;48.898;2.308;2022-10-16T03:10:04;16.67;74.30
66582;SHT31;53438;48.898;2.308;2022-10-16T03:12:30;16.77;74.11
66582;SHT31;53438;48.898;2.308;2022-10-16T03:14:56;16.71;73.89
66582;SHT31;53438;48.898;2.308;2022-10-16T03:17:22;16.76;73.93
66582;SHT31;53438;48.898;2.308;2022-10-16T03:19:47;16.73;73.58
66582;SHT31;53438;48.898;2.308;2022-10-16T03:22:13;16.74;73.79
66582;SHT31;53438;48.898;2.308;2022-10-16T03:24:38;16.66;73.90
66582;SHT31;53438;48.898;2.308;2022-10-16T03:27:03;16.71;73.69
66582;SHT31;53438;48.898;2.308;2022-10-16T03:29:29;16.74;73.78
66582;SHT31;53438;48.898;2.308;2022-10-16T03:31:55;16.77;73.74
66582;SHT31;53438;48.898;2.308;2022-10-16T03:34:21;16.70;73.38
66582;SHT31;53438;48.898;2.308;2022-10-16T03:36:46;16.66;73.40
66582;SHT31;53438;48.898;2.308;2022-10-16T03:39:11;16.59;73.53
66582;SHT31;53438;48.898;2.308;2022-10-16T03:41:37;16.66;73.46
66582;SHT31;53438;48.898;2.308;2022-10-16T03:44:02;16.70;73.29
66582;SHT31;53438;48.898;2.308;2022-10-16T03:46:27;16.66;73.28
66582;SHT31;53438;48.898;2.308;2022-10-16T03:48:53;16.63;73.13
66582;SHT31;53438;48.898;2.308;2022-10-16T03:51:18;16.69;73.22
66582;SHT31;53438;48.898;2.308;2022-10-16T03:53:43;16.60;73.23
66582;SHT31;53438;48.898;2.308;2022-10-16T03:56:09;16.66;73.30
66582;SHT31;53438;48.898;2.308;2022-10-16T03:58:34;16.69;73.12
66582;SHT31;53438;48.898;2.308;2022-10-16T04:00:59;16.70;72.97
66582;SHT31;53438;48.898;2.308;2022-10-16T04:03:25;16.60;73.08
66582;SHT31;53438;48.898;2.308;2022-10-16T04:05:50;16.61;73.27
66582;SHT31;53438;48.898;2.308;2022-10-16T04:08:16;16.63;73.41
66582;SHT31;53438;48.898;2.308;2022-10-16T04:10:44;16.60;73.43
66582;SHT31;53438;48.898;2.308;2022-10-16T04:13:10;16.49;73.89
66582;SHT31;53438;48.898;2.308;2022-10-16T04:15:36;16.49;73.99
66582;SHT31;53438;48.898;2.308;2022-10-16T04:18:01;16.60;73.67
66582;SHT31;53438;48.898;2.308;2022-10-16T04:20:26;16.56;73.66
66582;SHT31;53438;48.898;2.308;2022-10-16T04:22:52;16.46;73.86
66582;SHT31;53438;48.898;2.308;2022-10-16T04:25:18;16.55;73.81
66582;SHT31;53438;48.898;2.308;2022-10-16T04:27:43;16.45;74.10
66582;SHT31;53438;48.898;2.308;2022-10-16T04:30:09;16.38;74.32
66582;SHT31;53438;48.898;2.308;2022-10-16T04:32:34;16.30;74.49
66582;SHT31;53438;48.898;2.308;2022-10-16T04:34:59;16.26;74.60
66582;SHT31;53438;48.898;2.308;2022-10-16T04:37:25;16.34;74.50
66582;SHT31;53438;48.898;2.308;2022-10-16T04:39:51;16.38;74.59
66582;SHT31;53438;48.898;2.308;2022-10-16T04:42:17;16.40;74.70
66582;SHT31;53438;48.898;2.308;2022-10-16T04:44:42;16.38;74.74
66582;SHT31;53438;48.898;2.308;2022-10-16T04:47:08;16.45;74.71
66582;SHT31;53438;48.898;2.308;2022-10-16T04:49:33;16.39;74.71
66582;SHT31;53438;48.898;2.308;2022-10-16T04:51:59;16.36;74.95
66582;SHT31;53438;48.898;2.308;2022-10-16T04:54:24;16.49;74.71
66582;SHT31;53438;48.898;2.308;2022-10-16T04:56:49;16.53;74.69
66582;SHT31;53438;48.898;2.308;2022-10-16T04:59:17;16.43;74.85
66582;SHT31;53438;48.898;2.308;2022-10-16T05:01:43;16.39;74.90
66582;SHT31;53438;48.898;2.308;2022-10-16T05:04:09;16.40;74.92
66582;SHT31;53438;48.898;2.308;2022-10-16T05:06:34;16.42;74.65
66582;SHT31;53438;48.898;2.308;2022-10-16T05:09:00;16.40;74.79
66582;SHT31;53438;48.898;2.308;2022-10-16T05:11:26;16.38;74.74
66582;SHT31;53438;48.898;2.308;2022-10-16T05:13:52;16.38;74.84
66582;SHT31;53438;48.898;2.308;2022-10-16T05:16:17;16.28;75.01
66582;SHT31;53438;48.898;2.308;2022-10-16T05:18:42;16.30;74.99
66582;SHT31;53438;48.898;2.308;2022-10-16T05:21:08;16.39;74.87
66582;SHT31;53438;48.898;2.308;2022-10-16T05:23:33;16.38;74.70
66582;SHT31;53438;48.898;2.308;2022-10-16T05:25:59;16.30;74.81
66582;SHT31;53438;48.898;2.308;2022-10-16T05:28:26;16.25;75.30
66582;SHT31;53438;48.898;2.308;2022-10-16T05:30:52;16.28;75.17
66582;SHT31;53438;48.898;2.308;2022-10-16T05:33:19;16.32;75.06
66582;SHT31;53438;48.898;2.308;2022-10-16T05:35:45;16.22;75.07
66582;SHT31;53438;48.898;2.308;2022-10-16T05:38:10;16.18;75.21
66582;SHT31;53438;48.898;2.308;2022-10-16T05:40:36;16.22;75.13
66582;SHT31;53438;48.898;2.308;2022-10-16T05:43:01;16.20;75.18
66582;SHT31;53438;48.898;2.308;2022-10-16T05:45:26;16.29;74.98
66582;SHT31;53438;48.898;2.308;2022-10-16T05:47:52;16.33;74.74
66582;SHT31;53438;48.898;2.308;2022-10-16T05:50:17;16.38;74.55
66582;SHT31;53438;48.898;2.308;2022-10-16T05:52:42;16.40;74.54
66582;SHT31;53438;48.898;2.308;2022-10-16T05:55:08;16.39;74.41
66582;SHT31;53438;48.898;2.308;2022-10-16T05:57:33;16.40;74.60
66582;SHT31;53438;48.898;2.308;2022-10-16T05:59:59;16.40;74.43
66582;SHT31;53438;48.898;2.308;2022-10-16T06:02:24;16.42;74.43
66582;SHT31;53438;48.898;2.308;2022-10-16T06:04:51;16.36;74.55
66582;SHT31;53438;48.898;2.308;2022-10-16T06:07:18;16.34;74.60
66582;SHT31;53438;48.898;2.308;2022-10-16T06:09:43;16.33;74.58
66582;SHT31;53438;48.898;2.308;2022-10-16T06:12:08;16.36;74.52
66582;SHT31;53438;48.898;2.308;2022-10-16T06:14:34;16.34;74.64
66582;SHT31;53438;48.898;2.308;2022-10-16T06:16:59;16.20;74.97
66582;SHT31;53438;48.898;2.308;2022-10-16T06:19:24;16.25;74.88
66582;SHT31;53438;48.898;2.308;2022-10-16T06:21:50;16.26;74.81
66582;SHT31;53438;48.898;2.308;2022-10-16T06:24:15;16.30;74.74
66582;SHT31;53438;48.898;2.308;2022-10-16T06:26:40;16.26;74.86
66582;SHT31;53438;48.898;2.308;2022-10-16T06:29:06;16.28;74.98
66582;SHT31;53438;48.898;2.308;2022-10-16T06:31:31;16.30;74.84
66582;SHT31;53438;48.898;2.308;2022-10-16T06:33:59;16.30;74.83
66582;SHT31;53438;48.898;2.308;2022-10-16T06:36:25;16.30;74.83
66582;SHT31;53438;48.898;2.308;2022-10-16T06:38:51;16.36;74.72
66582;SHT31;53438;48.898;2.308;2022-10-16T06:41:18;16.36;74.68
66582;SHT31;53438;48.898;2.308;2022-10-16T06:43:45;16.36;74.80
66582;SHT31;53438;48.898;2.308;2022-10-16T06:46:12;16.36;74.80
66582;SHT31;53438;48.898;2.308;2022-10-16T06:48:38;16.25;75.22
66582;SHT31;53438;48.898;2.308;2022-10-16T06:51:18;16.13;75.79
66582;SHT31;53438;48.898;2.308;2022-10-16T06:53:48;16.18;75.65
66582;SHT31;53438;48.898;2.308;2022-10-16T06:56:20;16.19;75.48
66582;SHT31;53438;48.898;2.308;2022-10-16T06:58:46;16.26;75.32
66582;SHT31;53438;48.898;2.308;2022-10-16T07:01:13;16.33;75.15
66582;SHT31;53438;48.898;2.308;2022-10-16T07:03:40;16.39;75.04
66582;SHT31;53438;48.898;2.308;2022-10-16T07:06:07;16.38;74.99
66582;SHT31;53438;48.898;2.308;2022-10-16T07:08:33;16.39;74.91
66582;SHT31;53438;48.898;2.308;2022-10-16T07:11:04;16.40;74.70
66582;SHT31;53438;48.898;2.308;2022-10-16T07:13:33;16.39;74.76
66582;SHT31;53438;48.898;2.308;2022-10-16T07:16:04;16.40;74.71
66582;SHT31;53438;48.898;2.308;2022-10-16T07:18:29;16.34;74.98
66582;SHT31;53438;48.898;2.308;2022-10-16T07:21:03;16.40;74.86
66582;SHT31;53438;48.898;2.308;2022-10-16T07:23:29;16.36;74.51
66582;SHT31;53438;48.898;2.308;2022-10-16T07:25:54;16.34;74.53
66582;SHT31;53438;48.898;2.308;2022-10-16T07:28:20;16.36;74.64
66582;SHT31;53438;48.898;2.308;2022-10-16T07:30:46;16.49;74.43
66582;SHT31;53438;48.898;2.308;2022-10-16T07:33:11;16.49;74.25
66582;SHT31;53438;48.898;2.308;2022-10-16T07:35:36;16.55;74.11
66582;SHT31;53438;48.898;2.308;2022-10-16T07:38:02;16.50;74.25
66582;SHT31;53438;48.898;2.308;2022-10-16T07:40:27;16.59;74.04
66582;SHT31;53438;48.898;2.308;2022-10-16T07:42:52;16.56;73.76
66582;SHT31;53438;48.898;2.308;2022-10-16T07:45:18;16.52;73.62
66582;SHT31;53438;48.898;2.308;2022-10-16T07:47:43;16.63;73.62
66582;SHT31;53438;48.898;2.308;2022-10-16T07:50:08;16.61;73.69
66582;SHT31;53438;48.898;2.308;2022-10-16T07:52:34;16.64;73.68
66582;SHT31;53438;48.898;2.308;2022-10-16T07:54:59;16.76;73.46
66582;SHT31;53438;48.898;2.308;2022-10-16T07:57:24;16.81;73.20
66582;SHT31;53438;48.898;2.308;2022-10-16T07:59:50;16.87;73.06
66582;SHT31;53438;48.898;2.308;2022-10-16T08:02:15;16.94;72.81
66582;SHT31;53438;48.898;2.308;2022-10-16T08:04:40;16.95;72.29
66582;SHT31;53438;48.898;2.308;2022-10-16T08:07:07;16.98;72.39
66582;SHT31;53438;48.898;2.308;2022-10-16T08:09:34;16.94;72.40
66582;SHT31;53438;48.898;2.308;2022-10-16T08:12:00;16.90;72.56
66582;SHT31;53438;48.898;2.308;2022-10-16T08:14:25;16.92;72.51
66582;SHT31;53438;48.898;2.308;2022-10-16T08:16:50;16.95;72.60
66582;SHT31;53438;48.898;2.308;2022-10-16T08:19:16;16.90;72.58
66582;SHT31;53438;48.898;2.308;2022-10-16T08:21:41;16.98;72.64
66582;SHT31;53438;48.898;2.308;2022-10-16T08:24:06;17.00;72.51
66582;SHT31;53438;48.898;2.308;2022-10-16T08:26:32;17.11;72.28
66582;SHT31;53438;48.898;2.308;2022-10-16T08:28:57;17.11;72.06
66582;SHT31;53438;48.898;2.308;2022-10-16T08:31:23;17.25;71.84
66582;SHT31;53438;48.898;2.308;2022-10-16T08:33:49;17.24;71.71
66582;SHT31;53438;48.898;2.308;2022-10-16T08:36:15;17.24;71.95
66582;SHT31;53438;48.898;2.308;2022-10-16T08:38:41;17.34;71.92
66582;SHT31;53438;48.898;2.308;2022-10-16T08:46:50;17.39;72.05
66582;SHT31;53438;48.898;2.308;2022-10-16T08:49:19;17.32;72.13
66582;SHT31;53438;48.898;2.308;2022-10-16T08:51:45;17.41;72.16
66582;SHT31;53438;48.898;2.308;2022-10-16T08:54:19;17.38;72.11
66582;SHT31;53438;48.898;2.308;2022-10-16T08:56:46;17.43;72.19
66582;SHT31;53438;48.898;2.308;2022-10-16T08:59:13;17.41;72.11
66582;SHT31;53438;48.898;2.308;2022-10-16T09:01:50;17.36;72.38
66582;SHT31;53438;48.898;2.308;2022-10-16T09:07:28;17.35;72.40
66582;SHT31;53438;48.898;2.308;2022-10-16T09:10:10;17.48;72.42
66582;SHT31;53438;48.898;2.308;2022-10-16T09:12:48;17.61;72.25
66582;SHT31;53438;48.898;2.308;2022-10-16T09:15:32;17.65;71.55
66582;SHT31;53438;48.898;2.308;2022-10-16T09:18:18;17.75;71.24
66582;SHT31;53438;48.898;2.308;2022-10-16T09:23:17;17.97;70.43
66582;SHT31;53438;48.898;2.308;2022-10-16T09:25:45;18.00;70.02
66582;SHT31;53438;48.898;2.308;2022-10-16T09:28:11;18.14;69.77
66582;SHT31;53438;48.898;2.308;2022-10-16T09:30:37;18.14;69.63
66582;SHT31;53438;48.898;2.308;2022-10-16T09:33:04;18.09;69.93
66582;SHT31;53438;48.898;2.308;2022-10-16T09:35:47;18.01;70.25
66582;SHT31;53438;48.898;2.308;2022-10-16T09:38:30;17.91;70.84
66582;SHT31;53438;48.898;2.308;2022-10-16T09:40:57;18.01;70.90
66582;SHT31;53438;48.898;2.308;2022-10-16T09:46:01;18.09;70.86
66582;SHT31;53438;48.898;2.308;2022-10-16T09:48:34;18.11;70.91
66582;SHT31;53438;48.898;2.308;2022-10-16T09:51:03;18.09;70.86
66582;SHT31;53438;48.898;2.308;2022-10-16T09:53:42;18.06;70.74
66582;SHT31;53438;48.898;2.308;2022-10-16T09:56:10;18.11;70.66
66582;SHT31;53438;48.898;2.308;2022-10-16T09:58:42;18.14;70.14
66582;SHT31;53438;48.898;2.308;2022-10-16T10:01:13;18.16;70.22
66582;SHT31;53438;48.898;2.308;2022-10-16T10:03:40;18.07;70.37
66582;SHT31;53438;48.898;2.308;2022-10-16T10:06:17;18.13;69.73
66582;SHT31;53438;48.898;2.308;2022-10-16T10:09:19;18.13;69.89
66582;SHT31;53438;48.898;2.308;2022-10-16T10:17:16;18.16;69.99
66582;SHT31;53438;48.898;2.308;2022-10-16T10:33:35;18.48;69.06
66582;SHT31;53438;48.898;2.308;2022-10-16T10:36:46;18.49;68.98
66582;SHT31;53438;48.898;2.308;2022-10-16T10:42:04;18.52;68.37
66582;SHT31;53438;48.898;2.308;2022-10-16T10:53:18;18.52;67.05
66582;SHT31;53438;48.898;2.308;2022-10-16T10:55:54;18.62;66.62
66582;SHT31;53438;48.898;2.308;2022-10-16T11:01:16;18.71;66.86
66582;SHT31;53438;48.898;2.308;2022-10-16T11:06:22;18.73;67.64
66582;SHT31;53438;48.898;2.308;2022-10-16T11:08:51;18.75;67.77
66582;SHT31;53438;48.898;2.308;2022-10-16T11:11:24;18.78;67.77
66582;SHT31;53438;48.898;2.308;2022-10-16T11:14:17;18.81;68.15
66582;SHT31;53438;48.898;2.308;2022-10-16T11:16:59;18.92;67.67
66582;SHT31;53438;48.898;2.308;2022-10-16T11:22:13;18.86;68.60
66582;SHT31;53438;48.898;2.308;2022-10-16T11:24:45;18.89;68.95
66582;SHT31;53438;48.898;2.308;2022-10-16T11:27:15;18.79;69.19
66582;SHT31;53438;48.898;2.308;2022-10-16T11:29:51;18.86;69.16
66582;SHT31;53438;48.898;2.308;2022-10-16T11:32:53;18.81;69.40
66582;SHT31;53438;48.898;2.308;2022-10-16T11:35:36;18.78;69.74
66582;SHT31;53438;48.898;2.308;2022-10-16T11:38:08;18.81;69.86
66582;SHT31;53438;48.898;2.308;2022-10-16T11:40:38;18.82;69.73
66582;SHT31;53438;48.898;2.308;2022-10-16T11:43:26;18.79;70.04
66582;SHT31;53438;48.898;2.308;2022-10-16T11:45:59;18.82;69.73
66582;SHT31;53438;48.898;2.308;2022-10-16T11:48:47;18.82;69.89
66582;SHT31;53438;48.898;2.308;2022-10-16T11:56:17;18.96;69.31
66582;SHT31;53438;48.898;2.308;2022-10-16T11:59:02;18.95;69.39
66582;SHT31;53438;48.898;2.308;2022-10-16T12:04:12;19.00;69.59
66582;SHT31;53438;48.898;2.308;2022-10-16T12:06:50;19.00;69.49
66582;SHT31;53438;48.898;2.308;2022-10-16T12:09:28;19.12;69.30
66582;SHT31;53438;48.898;2.308;2022-10-16T12:11:54;19.05;69.64
66582;SHT31;53438;48.898;2.308;2022-10-16T12:16:58;19.12;69.15
66582;SHT31;53438;48.898;2.308;2022-10-16T12:19:26;19.08;69.39
66582;SHT31;53438;48.898;2.308;2022-10-16T12:21:56;19.09;69.18
66582;SHT31;53438;48.898;2.308;2022-10-16T12:24:38;19.05;69.33
66582;SHT31;53438;48.898;2.308;2022-10-16T12:27:06;19.15;69.19
66582;SHT31;53438;48.898;2.308;2022-10-16T12:29:40;19.19;69.06
66582;SHT31;53438;48.898;2.308;2022-10-16T12:32:43;19.20;68.69
66582;SHT31;53438;48.898;2.308;2022-10-16T12:35:21;19.26;68.89
66582;SHT31;53438;48.898;2.308;2022-10-16T12:37:47;19.30;68.72
66582;SHT31;53438;48.898;2.308;2022-10-16T12:40:26;19.26;68.99
66582;SHT31;53438;48.898;2.308;2022-10-16T12:42:52;19.29;69.07
66582;SHT31;53438;48.898;2.308;2022-10-16T12:45:29;19.36;68.94
66582;SHT31;53438;48.898;2.308;2022-10-16T12:47:57;19.33;69.09
66582;SHT31;53438;48.898;2.308;2022-10-16T12:50:35;19.37;69.00
66582;SHT31;53438;48.898;2.308;2022-10-16T12:53:03;19.37;69.32
66582;SHT31;53438;48.898;2.308;2022-10-16T12:55:40;19.33;69.41
66582;SHT31;53438;48.898;2.308;2022-10-16T12:58:09;19.33;69.60
66582;SHT31;53438;48.898;2.308;2022-10-16T13:00:49;19.34;69.76
66582;SHT31;53438;48.898;2.308;2022-10-16T13:06:19;19.40;69.88
66582;SHT31;53438;48.898;2.308;2022-10-16T13:23:18;19.54;69.96
66582;SHT31;53438;48.898;2.308;2022-10-16T13:26:09;19.56;70.20
66582;SHT31;53438;48.898;2.308;2022-10-16T13:28:39;19.70;69.94
66582;SHT31;53438;48.898;2.308;2022-10-16T13:31:05;19.75;70.10
66582;SHT31;53438;48.898;2.308;2022-10-16T13:33:39;19.84;70.38
66582;SHT31;53438;48.898;2.308;2022-10-16T13:36:06;19.82;69.96
66582;SHT31;53438;48.898;2.308;2022-10-16T13:38:34;19.88;69.79
66582;SHT31;53438;48.898;2.308;2022-10-16T13:43:50;19.84;70.23
66582;SHT31;53438;48.898;2.308;2022-10-16T13:46:21;19.77;70.39
66582;SHT31;53438;48.898;2.308;2022-10-16T13:49:03;19.70;70.58
66582;SHT31;53438;48.898;2.308;2022-10-16T13:51:30;19.74;70.82
66582;SHT31;53438;48.898;2.308;2022-10-16T13:53:57;19.78;70.84
66582;SHT31;53438;48.898;2.308;2022-10-16T13:56:26;19.75;70.94
66582;SHT31;53438;48.898;2.308;2022-10-16T13:59:03;19.74;70.99
66582;SHT31;53438;48.898;2.308;2022-10-16T14:01:34;19.71;71.13
66582;SHT31;53438;48.898;2.308;2022-10-16T14:04:02;19.77;71.18
66582;SHT31;53438;48.898;2.308;2022-10-16T14:06:29;19.85;70.92
66582;SHT31;53438;48.898;2.308;2022-10-16T14:09:00;19.82;70.83
66582;SHT31;53438;48.898;2.308;2022-10-16T14:11:27;19.78;71.22
66582;SHT31;53438;48.898;2.308;2022-10-16T14:13:53;19.79;71.20
66582;SHT31;53438;48.898;2.308;2022-10-16T14:16:25;19.84;71.25
66582;SHT31;53438;48.898;2.308;2022-10-16T14:19:19;19.82;71.31
66582;SHT31;53438;48.898;2.308;2022-10-16T14:21:45;19.85;71.19
66582;SHT31;53438;48.898;2.308;2022-10-16T14:24:12;19.99;71.04
66582;SHT31;53438;48.898;2.308;2022-10-16T14:26:44;19.98;70.78
66582;SHT31;53438;48.898;2.308;2022-10-16T14:31:37;20.04;70.70
66582;SHT31;53438;48.898;2.308;2022-10-16T14:34:05;20.05;70.80
66582;SHT31;53438;48.898;2.308;2022-10-16T14:36:47;20.05;70.76
66582;SHT31;53438;48.898;2.308;2022-10-16T14:39:19;20.02;70.92
66582;SHT31;53438;48.898;2.308;2022-10-16T14:41:47;20.05;70.79
66582;SHT31;53438;48.898;2.308;2022-10-16T14:44:13;20.02;70.83
66582;SHT31;53438;48.898;2.308;2022-10-16T14:46:43;20.11;70.82
66582;SHT31;53438;48.898;2.308;2022-10-16T14:51:34;20.01;71.11
66582;SHT31;53438;48.898;2.308;2022-10-16T14:54:00;20.04;71.40
66582;SHT31;53438;48.898;2.308;2022-10-16T14:56:30;19.99;71.35
66582;SHT31;53438;48.898;2.308;2022-10-16T14:58:56;20.07;71.26
66582;SHT31;53438;48.898;2.308;2022-10-16T15:01:21;19.98;71.40
66582;SHT31;53438;48.898;2.308;2022-10-16T15:03:47;19.97;71.58
66582;SHT31;53438;48.898;2.308;2022-10-16T15:06:15;20.07;71.55
66582;SHT31;53438;48.898;2.308;2022-10-16T15:08:41;20.02;71.59
66582;SHT31;53438;48.898;2.308;2022-10-16T15:11:18;20.05;71.81
66582;SHT31;53438;48.898;2.308;2022-10-16T15:13:44;20.02;71.65
66582;SHT31;53438;48.898;2.308;2022-10-16T15:16:16;19.99;71.94
66582;SHT31;53438;48.898;2.308;2022-10-16T15:18:42;20.02;71.93
66582;SHT31;53438;48.898;2.308;2022-10-16T15:21:08;20.08;71.95
66582;SHT31;53438;48.898;2.308;2022-10-16T15:23:34;20.18;71.74
66582;SHT31;53438;48.898;2.308;2022-10-16T15:25:59;20.21;71.77
66582;SHT31;53438;48.898;2.308;2022-10-16T15:28:25;20.22;71.65
66582;SHT31;53438;48.898;2.308;2022-10-16T15:30:52;20.19;71.82
66582;SHT31;53438;48.898;2.308;2022-10-16T15:33:20;20.25;71.77
66582;SHT31;53438;48.898;2.308;2022-10-16T15:35:47;20.22;71.88
66582;SHT31;53438;48.898;2.308;2022-10-16T15:38:13;20.25;71.85
66582;SHT31;53438;48.898;2.308;2022-10-16T15:40:39;20.25;71.85
66582;SHT31;53438;48.898;2.308;2022-10-16T15:43:05;20.25;71.95
66582;SHT31;53438;48.898;2.308;2022-10-16T15:45:31;20.22;71.95
66582;SHT31;53438;48.898;2.308;2022-10-16T15:47:57;20.21;72.09
66582;SHT31;53438;48.898;2.308;2022-10-16T15:50:22;20.15;72.18
66582;SHT31;53438;48.898;2.308;2022-10-16T15:52:47;20.11;72.52
66582;SHT31;53438;48.898;2.308;2022-10-16T15:55:14;20.08;72.75
66582;SHT31;53438;48.898;2.308;2022-10-16T15:57:40;20.19;72.67
66582;SHT31;53438;48.898;2.308;2022-10-16T16:00:11;20.16;72.69
66582;SHT31;53438;48.898;2.308;2022-10-16T16:02:37;20.22;72.70
66582;SHT31;53438;48.898;2.308;2022-10-16T16:05:03;20.28;72.70
66582;SHT31;53438;48.898;2.308;2022-10-16T16:07:32;20.33;72.51
66582;SHT31;53438;48.898;2.308;2022-10-16T16:09:58;20.26;72.55
66582;SHT31;53438;48.898;2.308;2022-10-16T16:12:23;20.25;72.66
66582;SHT31;53438;48.898;2.308;2022-10-16T16:14:49;20.24;72.90
66582;SHT31;53438;48.898;2.308;2022-10-16T16:17:14;20.21;73.06
66582;SHT31;53438;48.898;2.308;2022-10-16T16:19:40;20.22;73.22
66582;SHT31;53438;48.898;2.308;2022-10-16T16:22:05;20.24;73.30
66582;SHT31;53438;48.898;2.308;2022-10-16T16:24:30;20.33;73.22
66582;SHT31;53438;48.898;2.308;2022-10-16T16:26:56;20.21;73.31
66582;SHT31;53438;48.898;2.308;2022-10-16T16:29:21;20.21;73.41
66582;SHT31;53438;48.898;2.308;2022-10-16T16:31:47;20.15;73.75
66582;SHT31;53438;48.898;2.308;2022-10-16T16:34:13;20.18;74.01
66582;SHT31;53438;48.898;2.308;2022-10-16T16:36:38;20.19;73.85
66582;SHT31;53438;48.898;2.308;2022-10-16T16:39:06;20.21;73.82
66582;SHT31;53438;48.898;2.308;2022-10-16T16:41:31;20.14;74.05
66582;SHT31;53438;48.898;2.308;2022-10-16T16:44:05;20.12;74.16
66582;SHT31;53438;48.898;2.308;2022-10-16T16:46:33;20.22;74.04
66582;SHT31;53438;48.898;2.308;2022-10-16T16:48:59;20.21;74.08
66582;SHT31;53438;48.898;2.308;2022-10-16T16:51:24;20.24;74.00
66582;SHT31;53438;48.898;2.308;2022-10-16T16:53:52;20.16;74.25
66582;SHT31;53438;48.898;2.308;2022-10-16T16:56:18;20.12;74.48
66582;SHT31;53438;48.898;2.308;2022-10-16T16:58:48;20.05;74.60
66582;SHT31;53438;48.898;2.308;2022-10-16T17:01:14;20.11;74.63
66582;SHT31;53438;48.898;2.308;2022-10-16T17:03:43;20.08;74.89
66582;SHT31;53438;48.898;2.308;2022-10-16T17:06:13;20.04;74.86
66582;SHT31;53438;48.898;2.308;2022-10-16T17:08:39;19.92;75.05
66582;SHT31;53438;48.898;2.308;2022-10-16T17:11:06;19.89;75.47
66582;SHT31;53438;48.898;2.308;2022-10-16T17:13:33;19.92;75.45
66582;SHT31;53438;48.898;2.308;2022-10-16T17:16:04;20.07;75.02
66582;SHT31;53438;48.898;2.308;2022-10-16T17:18:30;20.09;75.03
66582;SHT31;53438;48.898;2.308;2022-10-16T17:20:59;20.04;75.08
66582;SHT31;53438;48.898;2.308;2022-10-16T17:23:24;19.98;75.29
66582;SHT31;53438;48.898;2.308;2022-10-16T17:25:49;20.04;75.34
66582;SHT31;53438;48.898;2.308;2022-10-16T17:28:15;19.94;75.59
66582;SHT31;53438;48.898;2.308;2022-10-16T17:30:41;19.92;75.63
66582;SHT31;53438;48.898;2.308;2022-10-16T17:33:07;19.91;75.82
66582;SHT31;53438;48.898;2.308;2022-10-16T17:35:42;19.89;75.97
66582;SHT31;53438;48.898;2.308;2022-10-16T17:38:08;19.87;76.11
66582;SHT31;53438;48.898;2.308;2022-10-16T17:40:34;19.92;76.10
66582;SHT31;53438;48.898;2.308;2022-10-16T17:43:00;19.92;76.08
66582;SHT31;53438;48.898;2.308;2022-10-16T17:45:25;19.79;76.31
66582;SHT31;53438;48.898;2.308;2022-10-16T17:47:51;19.77;76.53
66582;SHT31;53438;48.898;2.308;2022-10-16T17:50:16;19.77;76.50
66582;SHT31;53438;48.898;2.308;2022-10-16T17:52:42;19.79;76.51
66582;SHT31;53438;48.898;2.308;2022-10-16T17:55:08;19.78;76.58
66582;SHT31;53438;48.898;2.308;2022-10-16T17:57:33;19.92;76.37
66582;SHT31;53438;48.898;2.308;2022-10-16T17:59:58;19.87;76.34
66582;SHT31;53438;48.898;2.308;2022-10-16T18:02:26;19.79;76.46
66582;SHT31;53438;48.898;2.308;2022-10-16T18:04:52;19.82;76.53
66582;SHT31;53438;48.898;2.308;2022-10-16T18:07:17;19.77;76.71
66582;SHT31;53438;48.898;2.308;2022-10-16T18:09:42;19.78;76.78
66582;SHT31;53438;48.898;2.308;2022-10-16T18:12:08;19.89;76.54
66582;SHT31;53438;48.898;2.308;2022-10-16T18:14:33;19.87;76.64
66582;SHT31;53438;48.898;2.308;2022-10-16T18:16:59;19.88;76.78
66582;SHT31;53438;48.898;2.308;2022-10-16T18:19:25;19.84;76.93
66582;SHT31;53438;48.898;2.308;2022-10-16T18:21:51;19.77;77.04
66582;SHT31;53438;48.898;2.308;2022-10-16T18:24:18;19.75;77.25
66582;SHT31;53438;48.898;2.308;2022-10-16T18:26:44;19.82;77.12
66582;SHT31;53438;48.898;2.308;2022-10-16T18:29:11;19.79;77.29
66582;SHT31;53438;48.898;2.308;2022-10-16T18:31:36;19.87;77.24
66582;SHT31;53438;48.898;2.308;2022-10-16T18:34:02;19.78;77.42
66582;SHT31;53438;48.898;2.308;2022-10-16T18:36:31;19.81;77.35
66582;SHT31;53438;48.898;2.308;2022-10-16T18:38:58;19.81;77.32
66582;SHT31;53438;48.898;2.308;2022-10-16T18:41:25;19.74;77.54
66582;SHT31;53438;48.898;2.308;2022-10-16T18:43:51;19.71;77.85
66582;SHT31;53438;48.898;2.308;2022-10-16T18:46:18;19.68;78.03
66582;SHT31;53438;48.898;2.308;2022-10-16T18:48:45;19.85;77.74
66582;SHT31;53438;48.898;2.308;2022-10-16T18:53:46;19.77;77.85
66582;SHT31;53438;48.898;2.308;2022-10-16T18:56:13;19.79;77.70
66582;SHT31;53438;48.898;2.308;2022-10-16T18:58:40;19.75;78.02
66582;SHT31;53438;48.898;2.308;2022-10-16T19:01:09;19.67;78.35
66582;SHT31;53438;48.898;2.308;2022-10-16T19:03:36;19.64;78.34
66582;SHT31;53438;48.898;2.308;2022-10-16T19:06:05;19.63;78.49
66582;SHT31;53438;48.898;2.308;2022-10-16T19:08:33;19.61;78.56
66582;SHT31;53438;48.898;2.308;2022-10-16T19:11:16;19.71;78.54
66582;SHT31;53438;48.898;2.308;2022-10-16T19:13:43;19.67;78.37
66582;SHT31;53438;48.898;2.308;2022-10-16T19:16:11;19.63;78.78
66582;SHT31;53438;48.898;2.308;2022-10-16T19:18:37;19.63;78.72
66582;SHT31;53438;48.898;2.308;2022-10-16T19:21:05;19.64;78.88
66582;SHT31;53438;48.898;2.308;2022-10-16T19:23:31;19.60;79.00
66582;SHT31;53438;48.898;2.308;2022-10-16T19:26:03;19.57;79.08
66582;SHT31;53438;48.898;2.308;2022-10-16T19:28:28;19.53;79.18
66582;SHT31;53438;48.898;2.308;2022-10-16T19:30:54;19.61;79.18
66582;SHT31;53438;48.898;2.308;2022-10-16T19:33:19;19.60;79.11
66582;SHT31;53438;48.898;2.308;2022-10-16T19:35:44;19.50;79.24
66582;SHT31;53438;48.898;2.308;2022-10-16T19:38:10;19.54;79.37
66582;SHT31;53438;48.898;2.308;2022-10-16T19:40:35;19.54;79.23
66582;SHT31;53438;48.898;2.308;2022-10-16T19:43:01;19.49;79.46
66582;SHT31;53438;48.898;2.308;2022-10-16T19:45:26;19.56;79.53
66582;SHT31;53438;48.898;2.308;2022-10-16T19:47:51;19.60;79.30
66582;SHT31;53438;48.898;2.308;2022-10-16T19:50:17;19.54;79.40
66582;SHT31;53438;48.898;2.308;2022-10-16T19:52:44;19.56;79.48
66582;SHT31;53438;48.898;2.308;2022-10-16T19:55:09;19.50;79.45
66582;SHT31;53438;48.898;2.308;2022-10-16T19:57:35;19.54;79.41
66582;SHT31;53438;48.898;2.308;2022-10-16T20:00:04;19.56;79.38
66582;SHT31;53438;48.898;2.308;2022-10-16T20:02:29;19.56;79.26
66582;SHT31;53438;48.898;2.308;2022-10-16T20:04:55;19.51;79.45
66582;SHT31;53438;48.898;2.308;2022-10-16T20:07:20;19.43;79.62